createdAt,value
2018-07-31T00:00:35.827Z,7.57
2018-07-31T00:03:03.417Z,10.67
2018-07-31T00:05:30.978Z,7.10
2018-07-31T00:07:58.547Z,6.00
2018-07-31T00:10:26.237Z,8.10
2018-07-31T00:12:54.472Z,4.80
2018-07-31T00:15:22.041Z,5.90
2018-07-31T00:17:49.644Z,8.23
2018-07-31T00:20:17.983Z,6.32
2018-07-31T00:22:45.532Z,8.40
2018-07-31T00:25:13.124Z,5.47
2018-07-31T00:27:40.685Z,5.47
2018-07-31T00:30:08.254Z,6.53
2018-07-31T00:32:35.871Z,5.77
2018-07-31T00:35:03.446Z,7.60
2018-07-31T00:37:30.997Z,6.93
2018-07-31T00:39:58.596Z,6.43
2018-07-31T00:42:26.542Z,8.80
2018-07-31T00:44:54.094Z,6.77
2018-07-31T00:47:21.683Z,8.07
2018-07-31T00:49:49.246Z,5.27
2018-07-31T00:52:16.814Z,6.00
2018-07-31T00:54:44.441Z,7.60
2018-07-31T00:57:12.000Z,11.87
2018-07-31T00:59:39.562Z,4.20
2018-07-31T01:02:07.159Z,6.70
2018-07-31T01:04:34.718Z,9.07
2018-07-31T01:07:02.274Z,10.87
2018-07-31T01:09:29.869Z,6.83
2018-07-31T01:14:15.830Z,6.57
2018-07-31T01:16:43.425Z,5.57
2018-07-31T01:19:10.979Z,6.83
2018-07-31T01:21:38.535Z,9.73
2018-07-31T01:24:06.132Z,7.10
2018-07-31T01:26:33.693Z,11.07
2018-07-31T01:29:01.257Z,6.90
2018-07-31T01:31:28.843Z,6.97
2018-07-31T01:33:56.408Z,10.17
2018-07-31T01:36:23.972Z,8.07
2018-07-31T01:38:51.592Z,9.43
2018-07-31T01:41:19.150Z,5.67
2018-07-31T01:43:46.708Z,6.37
2018-07-31T01:46:15.062Z,9.07
2018-07-31T01:48:42.635Z,5.47
2018-07-31T01:51:10.958Z,7.30
2018-07-31T01:53:38.555Z,6.47
2018-07-31T01:56:06.112Z,5.87
2018-07-31T01:58:33.675Z,8.35
2018-07-31T02:01:01.287Z,9.83
2018-07-31T02:03:28.846Z,5.60
2018-07-31T02:05:56.399Z,6.03
2018-07-31T02:08:23.983Z,8.47
2018-07-31T02:10:51.536Z,9.33
2018-07-31T02:13:19.096Z,5.87
2018-07-31T02:15:46.697Z,8.63
2018-07-31T02:18:14.255Z,7.27
2018-07-31T02:20:41.844Z,11.13
2018-07-31T02:23:09.439Z,7.33
2018-07-31T02:25:37.009Z,5.83
2018-07-31T02:28:04.631Z,11.53
2018-07-31T02:30:32.146Z,7.93
2018-07-31T02:32:59.696Z,7.07
2018-07-31T02:35:27.257Z,8.93
2018-07-31T02:37:54.855Z,10.40
2018-07-31T02:40:22.421Z,8.90
2018-07-31T02:42:49.977Z,8.90
2018-07-31T02:45:17.623Z,10.60
2018-07-31T02:47:45.905Z,8.53
2018-07-31T02:50:13.468Z,9.73
2018-07-31T02:52:41.071Z,8.40
2018-07-31T02:55:08.638Z,8.03
2018-07-31T02:57:36.964Z,8.57
2018-07-31T03:00:04.560Z,10.53
2018-07-31T03:02:32.157Z,9.37
2018-07-31T03:04:59.713Z,8.63
2018-07-31T03:07:27.330Z,7.30
2018-07-31T03:09:54.893Z,6.57
2018-07-31T03:12:22.840Z,7.30
2018-07-31T03:14:50.499Z,7.13
2018-07-31T03:17:18.054Z,10.37
2018-07-31T03:19:45.933Z,8.80
2018-07-31T03:22:13.517Z,9.47
2018-07-31T03:24:41.078Z,12.63
2018-07-31T03:27:08.640Z,9.83
2018-07-31T03:29:36.258Z,7.57
2018-07-31T03:32:03.822Z,10.48
2018-07-31T03:34:31.396Z,8.03
2018-07-31T03:36:58.980Z,8.33
2018-07-31T03:39:26.532Z,10.50
2018-07-31T03:41:54.094Z,8.53
2018-07-31T03:44:21.675Z,7.70
2018-07-31T03:46:49.236Z,9.00
2018-07-31T03:49:16.803Z,7.10
2018-07-31T03:51:44.462Z,10.40
2018-07-31T03:54:11.982Z,7.47
2018-07-31T03:56:39.539Z,7.73
2018-07-31T03:59:07.126Z,9.50
2018-07-31T04:01:34.679Z,8.03
2018-07-31T04:04:02.238Z,8.50
2018-07-31T04:06:29.830Z,7.60
2018-07-31T04:08:59.599Z,8.93
2018-07-31T04:11:24.941Z,9.88
2018-07-31T04:13:53.510Z,14.00
2018-07-31T04:16:24.423Z,9.68
2018-07-31T04:18:51.928Z,8.03
2018-07-31T04:21:19.525Z,8.82
2018-07-31T04:23:47.848Z,7.67
2018-07-31T04:26:15.417Z,8.00
2018-07-31T04:28:43.001Z,9.37
2018-07-31T04:31:10.572Z,8.17
2018-07-31T04:33:38.901Z,8.27
2018-07-31T04:36:06.618Z,9.07
2018-07-31T04:38:34.085Z,9.37
2018-07-31T04:41:02.420Z,7.37
2018-07-31T04:43:30.282Z,10.43
2018-07-31T04:45:57.847Z,10.10
2018-07-31T04:48:25.716Z,8.40
2018-07-31T04:50:53.312Z,8.40
2018-07-31T04:53:21.634Z,9.50
2018-07-31T04:55:49.192Z,8.07
2018-07-31T04:58:16.815Z,9.93
2018-07-31T05:00:45.462Z,10.17
2018-07-31T05:03:13.020Z,7.10
2018-07-31T05:05:40.637Z,8.77
2018-07-31T05:08:08.965Z,9.60
2018-07-31T05:10:36.525Z,8.97
2018-07-31T05:13:04.115Z,9.07
2018-07-31T05:15:31.678Z,11.33
2018-07-31T05:17:59.231Z,7.67
2018-07-31T05:20:27.176Z,13.00
2018-07-31T05:22:54.736Z,12.57
2018-07-31T05:25:22.362Z,8.33
2018-07-31T05:27:49.906Z,7.70
2018-07-31T05:30:18.232Z,8.00
2018-07-31T05:32:45.848Z,8.47
2018-07-31T05:35:13.371Z,8.23
2018-07-31T05:37:40.925Z,7.67
2018-07-31T05:40:08.485Z,9.47
2018-07-31T05:42:36.079Z,8.60
2018-07-31T05:45:03.634Z,8.70
2018-07-31T05:47:31.204Z,11.63
2018-07-31T05:49:58.851Z,9.27
2018-07-31T05:52:26.423Z,10.77
2018-07-31T05:54:53.992Z,10.97
2018-07-31T05:57:21.647Z,10.27
2018-07-31T05:59:49.154Z,9.40
2018-07-31T06:02:16.715Z,11.63
2018-07-31T06:04:44.715Z,10.93
2018-07-31T06:07:12.282Z,13.70
2018-07-31T06:09:39.887Z,10.77
2018-07-31T06:12:07.470Z,11.07
2018-07-31T06:14:35.035Z,11.50
2018-07-31T06:17:02.595Z,16.47
2018-07-31T06:19:30.213Z,10.50
2018-07-31T06:21:57.776Z,12.27
2018-07-31T06:24:26.103Z,13.47
2018-07-31T06:26:54.100Z,11.20
2018-07-31T06:29:21.658Z,13.03
2018-07-31T06:31:49.224Z,12.57
2018-07-31T06:34:17.353Z,10.27
2018-07-31T06:36:44.914Z,12.17
2018-07-31T06:39:12.485Z,10.77
2018-07-31T06:41:40.831Z,12.60
2018-07-31T06:44:09.162Z,11.83
2018-07-31T06:46:36.719Z,9.20
2018-07-31T06:49:04.326Z,10.27
2018-07-31T06:51:31.898Z,10.57
2018-07-31T06:53:59.445Z,9.40
2018-07-31T06:56:27.060Z,17.07
2018-07-31T06:58:54.625Z,8.37
2018-07-31T07:01:22.194Z,9.73
2018-07-31T07:03:49.795Z,7.30
2018-07-31T07:06:18.115Z,9.60
2018-07-31T07:08:45.684Z,9.63
2018-07-31T07:11:14.181Z,9.23
2018-07-31T07:13:41.740Z,6.87
2018-07-31T07:16:09.301Z,8.97
2018-07-31T07:18:36.899Z,6.73
2018-07-31T07:21:04.469Z,7.50
2018-07-31T07:23:32.785Z,7.37
2018-07-31T07:26:00.438Z,11.17
2018-07-31T07:28:28.003Z,10.33
2018-07-31T07:30:55.561Z,9.17
2018-07-31T07:33:24.489Z,8.40
2018-07-31T07:35:52.054Z,6.13
2018-07-31T07:38:19.623Z,8.50
2018-07-31T07:40:47.222Z,7.43
2018-07-31T07:43:14.782Z,5.53
2018-07-31T07:45:43.116Z,4.10
2018-07-31T07:48:10.717Z,6.90
2018-07-31T07:50:39.044Z,4.50
2018-07-31T07:53:06.608Z,8.60
2018-07-31T07:55:34.244Z,5.47
2018-07-31T07:58:01.780Z,4.50
2018-07-31T08:00:30.114Z,6.73
2018-07-31T08:02:57.720Z,3.97
2018-07-31T08:05:26.053Z,10.93
2018-07-31T08:07:53.616Z,4.53
2018-07-31T08:10:21.260Z,4.17
2018-07-31T08:12:48.837Z,5.63
2018-07-31T08:15:16.394Z,8.43
2018-07-31T08:17:44.026Z,4.33
2018-07-31T08:20:11.595Z,3.77
2018-07-31T08:22:39.185Z,4.27
2018-07-31T08:25:06.764Z,6.13
2018-07-31T08:27:34.332Z,6.60
2018-07-31T08:30:01.887Z,6.93
2018-07-31T08:32:29.490Z,5.97
2018-07-31T08:34:57.044Z,3.50
2018-07-31T08:37:24.609Z,3.47
2018-07-31T08:39:52.211Z,4.97
2018-07-31T08:42:19.770Z,3.13
2018-07-31T08:44:47.336Z,3.57
2018-07-31T08:47:14.994Z,4.07
2018-07-31T08:49:42.553Z,2.60
2018-07-31T08:52:10.116Z,4.57
2018-07-31T08:54:38.238Z,4.20
2018-07-31T08:57:06.568Z,5.57
2018-07-31T08:59:34.126Z,7.80
2018-07-31T09:02:01.777Z,3.77
2018-07-31T09:04:29.329Z,7.20
2018-07-31T09:06:56.890Z,4.20
2018-07-31T09:09:24.895Z,3.30
2018-07-31T09:11:52.457Z,4.13
2018-07-31T09:14:20.014Z,5.00
2018-07-31T09:16:47.618Z,4.23
2018-07-31T09:19:15.176Z,5.83
2018-07-31T09:21:43.500Z,4.23
2018-07-31T09:24:11.100Z,2.87
2018-07-31T09:26:38.659Z,2.73
2018-07-31T09:29:06.216Z,5.27
2018-07-31T09:31:33.846Z,3.40
2018-07-31T09:34:01.400Z,4.30
2018-07-31T09:36:29.001Z,2.30
2018-07-31T09:38:56.566Z,7.30
2018-07-31T09:41:24.123Z,3.07
2018-07-31T09:43:51.684Z,5.60
2018-07-31T09:46:20.041Z,2.37
2018-07-31T09:48:47.601Z,2.10
2018-07-31T09:51:15.154Z,4.43
2018-07-31T09:53:43.568Z,4.37
2018-07-31T09:56:11.125Z,4.33
2018-07-31T09:58:38.681Z,1.97
2018-07-31T10:01:06.325Z,4.43
2018-07-31T10:03:33.895Z,1.97
2018-07-31T10:06:01.430Z,2.90
2018-07-31T10:08:29.038Z,4.30
2018-07-31T10:10:56.597Z,3.77
2018-07-31T10:13:24.158Z,3.35
2018-07-31T10:15:51.755Z,6.27
2018-07-31T10:18:19.351Z,3.62
2018-07-31T10:20:46.877Z,4.80
2018-07-31T10:23:14.484Z,3.90
2018-07-31T10:25:42.041Z,3.57
2018-07-31T10:28:09.598Z,2.97
2018-07-31T10:30:37.240Z,4.37
2018-07-31T10:33:04.757Z,2.93
2018-07-31T10:35:32.312Z,4.43
2018-07-31T10:37:59.950Z,3.17
2018-07-31T10:40:27.512Z,2.50
2018-07-31T10:42:55.073Z,6.17
2018-07-31T10:45:22.683Z,2.60
2018-07-31T10:47:51.015Z,4.13
2018-07-31T10:50:18.569Z,7.07
2018-07-31T10:52:46.213Z,4.73
2018-07-31T10:55:13.765Z,2.00
2018-07-31T10:57:41.321Z,5.67
2018-07-31T11:00:09.017Z,5.03
2018-07-31T11:02:36.483Z,4.20
2018-07-31T11:05:04.041Z,12.07
2018-07-31T11:07:31.650Z,1.93
2018-07-31T11:09:59.973Z,4.80
2018-07-31T11:12:27.538Z,6.57
2018-07-31T11:14:55.171Z,3.73
2018-07-31T11:17:22.724Z,4.27
2018-07-31T11:19:50.289Z,3.13
2018-07-31T11:22:17.893Z,2.00
2018-07-31T11:24:45.457Z,3.93
2018-07-31T11:27:13.014Z,5.22
2018-07-31T11:29:40.658Z,7.50
2018-07-31T11:32:08.220Z,3.87
2018-07-31T11:34:35.778Z,3.03
2018-07-31T11:37:04.205Z,3.60
2018-07-31T11:39:31.728Z,1.57
2018-07-31T11:41:59.291Z,4.27
2018-07-31T11:44:26.901Z,2.40
2018-07-31T11:46:55.220Z,3.77
2018-07-31T11:49:22.774Z,3.57
2018-07-31T11:51:51.337Z,3.07
2018-07-31T11:54:18.883Z,4.37
2018-07-31T11:56:46.445Z,4.87
2018-07-31T11:59:14.856Z,1.90
2018-07-31T12:01:42.436Z,3.63
2018-07-31T12:04:10.068Z,3.90
2018-07-31T12:06:38.041Z,4.73
2018-07-31T12:09:05.604Z,2.27
2018-07-31T12:11:33.203Z,1.90
2018-07-31T12:14:00.822Z,6.17
2018-07-31T12:16:28.332Z,3.97
2018-07-31T12:18:55.892Z,3.97
2018-07-31T12:21:23.493Z,3.20
2018-07-31T12:23:51.831Z,2.23
2018-07-31T12:26:19.390Z,3.53
2018-07-31T12:28:46.998Z,3.47
2018-07-31T12:31:15.322Z,4.97
2018-07-31T12:33:42.882Z,2.20
2018-07-31T12:36:10.826Z,3.70
2018-07-31T12:38:38.388Z,2.17
2018-07-31T12:41:05.950Z,2.50
2018-07-31T12:43:34.057Z,4.57
2018-07-31T12:46:01.621Z,2.80
2018-07-31T12:48:29.179Z,2.43
2018-07-31T12:50:56.802Z,3.97
2018-07-31T12:53:24.365Z,2.20
2018-07-31T12:55:51.927Z,2.40
2018-07-31T12:58:19.544Z,3.43
2018-07-31T13:00:47.106Z,3.23
2018-07-31T13:03:14.657Z,1.67
2018-07-31T13:05:42.258Z,1.77
2018-07-31T13:08:10.589Z,1.30
2018-07-31T13:10:38.153Z,1.30
2018-07-31T13:13:05.759Z,2.10
2018-07-31T13:15:34.098Z,4.28
2018-07-31T13:18:01.659Z,3.33
2018-07-31T13:20:29.257Z,1.40
2018-07-31T13:22:57.600Z,4.80
2018-07-31T13:25:25.170Z,1.60
2018-07-31T13:27:52.830Z,4.60
2018-07-31T13:30:20.355Z,2.90
2018-07-31T13:32:47.913Z,16.37
2018-07-31T13:35:16.046Z,1.20
2018-07-31T13:37:44.372Z,1.83
2018-07-31T13:40:11.928Z,3.93
2018-07-31T13:42:39.541Z,1.23
2018-07-31T13:45:07.094Z,2.63
2018-07-31T13:47:34.652Z,3.60
2018-07-31T13:50:02.262Z,8.37
2018-07-31T13:52:29.847Z,2.50
2018-07-31T13:54:57.368Z,1.93
2018-07-31T13:57:24.977Z,1.40
2018-07-31T13:59:52.527Z,3.07
2018-07-31T14:02:20.327Z,1.43
2018-07-31T14:04:47.943Z,2.57
2018-07-31T14:07:15.506Z,1.87
2018-07-31T14:09:43.060Z,1.53
2018-07-31T14:12:11.059Z,1.90
2018-07-31T14:14:38.621Z,1.93
2018-07-31T14:17:06.191Z,3.37
2018-07-31T14:19:33.805Z,2.23
2018-07-31T14:22:01.364Z,1.63
2018-07-31T14:24:29.715Z,1.83
2018-07-31T14:26:57.862Z,4.10
2018-07-31T14:29:25.419Z,3.20
2018-07-31T14:31:52.972Z,1.20
2018-07-31T14:34:20.898Z,1.37
2018-07-31T14:36:49.221Z,2.80
2018-07-31T14:39:16.787Z,3.50
2018-07-31T14:41:44.976Z,1.47
2018-07-31T14:44:12.576Z,2.33
2018-07-31T14:46:40.090Z,1.17
2018-07-31T14:49:07.694Z,0.87
2018-07-31T14:51:36.024Z,0.93
2018-07-31T14:54:03.627Z,0.80
2018-07-31T14:56:31.282Z,2.57
2018-07-31T14:58:58.838Z,1.50
2018-07-31T15:01:26.392Z,2.87
2018-07-31T15:03:54.006Z,1.73
2018-07-31T15:06:21.566Z,1.23
2018-07-31T15:08:49.126Z,0.87
2018-07-31T15:11:16.837Z,1.13
2018-07-31T15:13:44.299Z,1.33
2018-07-31T15:16:11.860Z,1.23
2018-07-31T15:18:39.465Z,3.47
2018-07-31T15:21:07.022Z,1.35
2018-07-31T15:23:34.609Z,1.57
2018-07-31T15:26:02.174Z,1.47
2018-07-31T15:28:29.736Z,1.13
2018-07-31T15:30:57.295Z,4.03
2018-07-31T15:33:24.915Z,0.63
2018-07-31T15:35:53.248Z,1.33
2018-07-31T15:38:20.807Z,0.97
2018-07-31T15:40:48.428Z,3.17
2018-07-31T15:43:15.966Z,2.17
2018-07-31T15:45:43.533Z,1.47
2018-07-31T15:48:12.430Z,1.47
2018-07-31T15:50:39.976Z,4.10
2018-07-31T15:53:07.534Z,0.70
2018-07-31T15:55:35.128Z,0.70
2018-07-31T15:58:02.685Z,3.53
2018-07-31T16:00:30.241Z,2.78
2018-07-31T16:02:58.611Z,1.60
2018-07-31T16:05:26.937Z,1.47
2018-07-31T16:07:54.500Z,2.57
2018-07-31T16:10:22.112Z,2.43
2018-07-31T16:12:49.712Z,2.15
2018-07-31T16:15:18.005Z,0.83
2018-07-31T16:17:45.606Z,0.87
2018-07-31T16:20:13.160Z,3.03
2018-07-31T16:22:40.716Z,0.50
2018-07-31T16:25:08.309Z,2.40
2018-07-31T16:27:36.627Z,1.60
2018-07-31T16:30:04.187Z,1.80
2018-07-31T16:32:31.789Z,0.50
2018-07-31T16:34:59.344Z,3.67
2018-07-31T16:37:26.920Z,2.90
2018-07-31T16:39:55.297Z,2.00
2018-07-31T16:42:22.863Z,2.37
2018-07-31T16:44:51.189Z,2.73
2018-07-31T16:47:18.800Z,1.40
2018-07-31T16:49:47.118Z,0.73
2018-07-31T16:52:14.684Z,0.50
2018-07-31T16:54:42.327Z,0.50
2018-07-31T16:57:09.883Z,1.00
2018-07-31T16:59:37.451Z,0.70
2018-07-31T17:02:05.665Z,2.00
2018-07-31T17:04:33.221Z,2.13
2018-07-31T17:07:00.782Z,0.97
2018-07-31T17:09:28.384Z,2.60
2018-07-31T17:11:56.713Z,0.93
2018-07-31T17:14:24.271Z,3.53
2018-07-31T17:16:51.902Z,0.60
2018-07-31T17:19:20.246Z,1.03
2018-07-31T17:21:47.941Z,1.13
2018-07-31T17:24:15.527Z,2.17
2018-07-31T17:26:43.090Z,0.60
2018-07-31T17:29:10.654Z,2.00
2018-07-31T17:31:38.254Z,1.43
2018-07-31T17:34:05.811Z,0.93
2018-07-31T17:36:33.366Z,1.30
2018-07-31T17:39:01.627Z,1.27
2018-07-31T17:41:29.218Z,1.90
2018-07-31T17:43:56.741Z,1.60
2018-07-31T17:46:24.344Z,0.90
2018-07-31T17:48:51.918Z,0.60
2018-07-31T17:51:20.239Z,1.40
2018-07-31T17:53:48.334Z,0.90
2018-07-31T17:56:15.891Z,3.80
2018-07-31T17:58:43.451Z,1.50
2018-07-31T18:01:11.051Z,2.87
2018-07-31T18:03:38.625Z,5.63
2018-07-31T18:06:06.165Z,2.37
2018-07-31T18:08:33.780Z,2.50
2018-07-31T18:11:01.340Z,2.90
2018-07-31T18:13:28.899Z,2.10
2018-07-31T18:15:56.495Z,2.20
2018-07-31T18:18:24.055Z,3.23
2018-07-31T18:20:51.612Z,3.13
2018-07-31T18:23:19.225Z,1.80
2018-07-31T18:25:46.788Z,1.80
2018-07-31T18:28:14.337Z,3.25
2018-07-31T18:30:42.715Z,1.83
2018-07-31T18:33:11.045Z,0.90
2018-07-31T18:35:38.602Z,0.60
2018-07-31T18:38:06.224Z,2.07
2018-07-31T18:40:34.560Z,1.73
2018-07-31T18:43:02.227Z,1.47
2018-07-31T18:45:29.794Z,2.67
2018-07-31T18:47:57.385Z,1.20
2018-07-31T18:50:24.912Z,1.97
2018-07-31T18:52:52.698Z,1.23
2018-07-31T18:55:20.210Z,2.90
2018-07-31T18:57:47.764Z,1.60
2018-07-31T19:00:16.471Z,1.17
2018-07-31T19:02:44.053Z,1.07
2018-07-31T19:05:11.608Z,2.77
2018-07-31T19:07:39.229Z,0.63
2018-07-31T19:10:06.782Z,3.67
2018-07-31T19:12:34.349Z,3.07
2018-07-31T19:15:01.984Z,1.87
2018-07-31T19:17:29.565Z,3.17
2018-07-31T19:19:57.118Z,1.53
2018-07-31T19:22:24.764Z,3.37
2018-07-31T19:24:53.093Z,1.00
2018-07-31T19:27:20.653Z,0.80
2018-07-31T19:29:48.657Z,3.17
2018-07-31T19:32:16.213Z,4.60
2018-07-31T19:34:43.773Z,2.63
2018-07-31T19:37:11.393Z,4.40
2018-07-31T19:39:38.949Z,1.33
2018-07-31T19:42:06.566Z,2.30
2018-07-31T19:44:35.025Z,5.23
2018-07-31T19:47:02.582Z,1.80
2018-07-31T19:49:30.325Z,4.33
2018-07-31T19:51:58.866Z,1.90
2018-07-31T19:54:26.403Z,3.83
2018-07-31T19:56:53.969Z,1.48
2018-07-31T19:59:21.620Z,1.53
2018-07-31T20:01:49.409Z,2.90
2018-07-31T20:04:16.991Z,2.40
2018-07-31T20:06:47.998Z,2.20
2018-07-31T20:09:15.555Z,1.27
2018-07-31T20:11:43.138Z,3.62
2018-07-31T20:14:10.722Z,2.03
2018-07-31T20:16:39.039Z,1.60
2018-07-31T20:19:06.616Z,2.20
2018-07-31T20:21:34.241Z,6.17
2018-07-31T20:24:01.799Z,4.43
2018-07-31T20:26:29.395Z,2.60
2018-07-31T20:28:56.960Z,1.60
2018-07-31T20:31:24.513Z,1.43
2018-07-31T20:33:52.136Z,4.13
2018-07-31T20:36:19.845Z,1.13
2018-07-31T20:38:47.407Z,1.27
2018-07-31T20:41:15.050Z,1.93
2018-07-31T20:43:42.661Z,0.80
2018-07-31T20:46:10.235Z,2.50
2018-07-31T20:48:38.598Z,0.70
2018-07-31T20:51:06.171Z,1.60
2018-07-31T20:53:34.500Z,0.73
2018-07-31T20:56:02.065Z,3.33
2018-07-31T20:58:30.996Z,1.00
2018-07-31T21:00:58.560Z,2.07
2018-07-31T21:03:26.136Z,3.87
2018-07-31T21:05:54.995Z,0.83
2018-07-31T21:08:22.564Z,2.53
2018-07-31T21:10:50.125Z,1.27
2018-07-31T21:13:20.886Z,2.13
2018-07-31T21:15:48.503Z,0.87
2018-07-31T21:18:16.168Z,2.67
2018-07-31T21:20:43.686Z,1.67
2018-07-31T21:23:11.246Z,1.17
2018-07-31T21:25:38.816Z,2.30
2018-07-31T21:28:06.486Z,5.57
2018-07-31T21:30:34.080Z,4.67
2018-07-31T21:33:01.939Z,1.97
2018-07-31T21:35:30.147Z,1.80
2018-07-31T21:37:57.723Z,3.40
2018-07-31T21:40:25.382Z,1.70
2018-07-31T21:42:52.924Z,1.10
2018-07-31T21:45:20.487Z,2.07
2018-07-31T21:47:48.052Z,2.10
2018-07-31T21:50:15.665Z,2.50
2018-07-31T21:55:10.799Z,1.50
2018-07-31T21:57:38.417Z,10.63
2018-07-31T22:00:06.763Z,3.17
2018-07-31T22:02:34.305Z,1.90
2018-07-31T22:05:02.456Z,5.97
2018-07-31T22:07:30.095Z,1.03
2018-07-31T22:09:57.833Z,2.17
2018-07-31T22:12:25.441Z,3.83
2018-07-31T22:14:53.002Z,1.98
2018-07-31T22:17:20.575Z,2.27
2018-07-31T22:19:48.165Z,2.77
2018-07-31T22:22:15.729Z,1.77
2018-07-31T22:24:43.396Z,1.30
2018-07-31T22:27:10.874Z,1.70
2018-07-31T22:29:39.194Z,2.40
2018-07-31T22:32:06.764Z,3.93
2018-07-31T22:34:34.854Z,1.87
2018-07-31T22:37:02.403Z,2.23
2018-07-31T22:39:29.968Z,3.23
2018-07-31T22:41:57.551Z,1.47
2018-07-31T22:44:25.109Z,6.33
2018-07-31T22:46:52.669Z,2.33
2018-07-31T22:49:20.261Z,4.30
2018-07-31T22:51:48.620Z,2.63
2018-07-31T22:54:16.178Z,1.67
2018-07-31T22:56:43.790Z,3.20
2018-07-31T22:59:11.353Z,3.97
2018-07-31T23:01:38.907Z,2.40
2018-07-31T23:04:06.495Z,1.57
2018-07-31T23:06:34.051Z,3.27
2018-07-31T23:09:01.609Z,4.50
2018-07-31T23:11:29.290Z,1.80
2018-07-31T23:13:56.849Z,2.13
2018-07-31T23:16:24.405Z,2.43
2018-07-31T23:18:51.999Z,1.20
2018-07-31T23:21:19.578Z,2.77
2018-07-31T23:23:47.123Z,3.97
2018-07-31T23:26:14.709Z,1.93
2018-07-31T23:28:43.082Z,3.90
2018-07-31T23:31:10.595Z,1.20
2018-07-31T23:33:38.188Z,3.90
2018-07-31T23:36:05.781Z,3.57
2018-07-31T23:38:33.335Z,1.20
2018-07-31T23:41:01.699Z,3.17
2018-07-31T23:43:29.259Z,2.53
2018-07-31T23:45:57.584Z,1.50
2018-07-31T23:48:25.177Z,2.33
2018-07-31T23:50:52.742Z,10.73
2018-07-31T23:53:20.300Z,1.33
2018-07-31T23:55:47.886Z,2.70
2018-07-31T23:58:16.215Z,2.47
